METAR Data
IDs: Format: Raw Decoded Include TAF

Data at: 1350 UTC 14 Dec 2019

METAR for:KCID (Cedar Rapids/E Iowao, IA, US)
Text:KCID 141252Z 32011KT 4SM BR OVC009 M04/M05 A2982 RMK AO2 SLP107 T10391050
Temperature: -3.9°C ( 25°F)
Dewpoint: -5.0°C ( 23°F) [RH = 92%]
Pressure (altimeter):29.82 inches Hg (1009.9 mb) [Sea level pressure: 1010.7 mb]
Winds:from the NW (320 degrees) at 13 MPH (11 knots; 5.7 m/s)
Visibility: 4 sm ( 6 km)
Ceiling:900 feet AGL
Clouds: overcast cloud deck at 900 feet AGL
Weather:BR (mist)